sensor_id;sensor_type;location;lat;lon;timestamp;P1;durP1;ratioP1;P2;durP2;ratioP2
46290;SDS011;32023;44.444;26.006;2023-08-31T00:00:30;7.20;;;5.22;;
46290;SDS011;32023;44.444;26.006;2023-08-31T00:03:22;7.38;;;5.35;;
46290;SDS011;32023;44.444;26.006;2023-08-31T00:05:53;8.20;;;5.13;;
46290;SDS011;32023;44.444;26.006;2023-08-31T00:11:27;10.63;;;5.30;;
46290;SDS011;32023;44.444;26.006;2023-08-31T00:14:01;8.35;;;5.13;;
46290;SDS011;32023;44.444;26.006;2023-08-31T00:16:38;9.07;;;5.57;;
46290;SDS011;32023;44.444;26.006;2023-08-31T00:19:13;8.18;;;5.22;;
46290;SDS011;32023;44.444;26.006;2023-08-31T00:25:02;6.90;;;4.38;;
46290;SDS011;32023;44.444;26.006;2023-08-31T00:30:19;9.35;;;5.32;;
46290;SDS011;32023;44.444;26.006;2023-08-31T00:35:33;12.85;;;5.15;;
46290;SDS011;32023;44.444;26.006;2023-08-31T00:38:19;6.63;;;5.30;;
46290;SDS011;32023;44.444;26.006;2023-08-31T00:40:57;10.43;;;5.50;;
46290;SDS011;32023;44.444;26.006;2023-08-31T00:43:29;7.75;;;5.63;;
46290;SDS011;32023;44.444;26.006;2023-08-31T00:46:04;6.25;;;5.20;;
46290;SDS011;32023;44.444;26.006;2023-08-31T00:48:42;6.90;;;4.80;;
46290;SDS011;32023;44.444;26.006;2023-08-31T00:51:09;8.80;;;5.10;;
46290;SDS011;32023;44.444;26.006;2023-08-31T00:53:38;8.88;;;5.68;;
46290;SDS011;32023;44.444;26.006;2023-08-31T00:56:08;8.43;;;5.90;;
46290;SDS011;32023;44.444;26.006;2023-08-31T00:58:40;10.23;;;6.18;;
46290;SDS011;32023;44.444;26.006;2023-08-31T01:13:33;5.85;;;5.05;;
46290;SDS011;32023;44.444;26.006;2023-08-31T01:16:09;7.72;;;5.45;;
46290;SDS011;32023;44.444;26.006;2023-08-31T01:18:56;6.05;;;5.07;;
46290;SDS011;32023;44.444;26.006;2023-08-31T01:21:43;9.18;;;5.18;;
46290;SDS011;32023;44.444;26.006;2023-08-31T01:24:15;10.93;;;5.97;;
46290;SDS011;32023;44.444;26.006;2023-08-31T01:26:45;7.90;;;5.70;;
46290;SDS011;32023;44.444;26.006;2023-08-31T01:29:15;7.32;;;5.68;;
46290;SDS011;32023;44.444;26.006;2023-08-31T01:31:56;8.40;;;6.25;;
46290;SDS011;32023;44.444;26.006;2023-08-31T01:37:55;8.98;;;5.53;;
46290;SDS011;32023;44.444;26.006;2023-08-31T01:40:28;10.25;;;5.88;;
46290;SDS011;32023;44.444;26.006;2023-08-31T01:43:22;16.25;;;6.03;;
46290;SDS011;32023;44.444;26.006;2023-08-31T01:45:58;7.30;;;5.85;;
46290;SDS011;32023;44.444;26.006;2023-08-31T01:48:46;7.38;;;6.38;;
46290;SDS011;32023;44.444;26.006;2023-08-31T01:51:30;7.50;;;5.93;;
46290;SDS011;32023;44.444;26.006;2023-08-31T01:54:11;8.85;;;6.05;;
46290;SDS011;32023;44.444;26.006;2023-08-31T01:56:50;9.48;;;6.00;;
46290;SDS011;32023;44.444;26.006;2023-08-31T02:03:11;8.15;;;5.60;;
46290;SDS011;32023;44.444;26.006;2023-08-31T02:06:00;8.70;;;5.75;;
46290;SDS011;32023;44.444;26.006;2023-08-31T02:08:39;8.57;;;6.07;;
46290;SDS011;32023;44.444;26.006;2023-08-31T02:11:19;7.30;;;5.53;;
46290;SDS011;32023;44.444;26.006;2023-08-31T02:13:51;7.32;;;5.60;;
46290;SDS011;32023;44.444;26.006;2023-08-31T02:16:49;6.60;;;5.70;;
46290;SDS011;32023;44.444;26.006;2023-08-31T02:19:24;9.23;;;5.70;;
46290;SDS011;32023;44.444;26.006;2023-08-31T02:21:59;10.20;;;6.00;;
46290;SDS011;32023;44.444;26.006;2023-08-31T02:24:50;7.45;;;5.43;;
46290;SDS011;32023;44.444;26.006;2023-08-31T02:30:16;6.95;;;5.63;;
46290;SDS011;32023;44.444;26.006;2023-08-31T02:32:56;9.00;;;6.15;;
46290;SDS011;32023;44.444;26.006;2023-08-31T02:35:35;7.30;;;5.68;;
46290;SDS011;32023;44.444;26.006;2023-08-31T02:44:49;10.25;;;6.15;;
46290;SDS011;32023;44.444;26.006;2023-08-31T02:47:38;8.65;;;6.40;;
46290;SDS011;32023;44.444;26.006;2023-08-31T02:55:45;11.38;;;7.22;;
46290;SDS011;32023;44.444;26.006;2023-08-31T03:14:06;16.73;;;7.53;;
46290;SDS011;32023;44.444;26.006;2023-08-31T03:24:42;15.05;;;7.68;;
46290;SDS011;32023;44.444;26.006;2023-08-31T03:33:29;16.75;;;7.97;;
46290;SDS011;32023;44.444;26.006;2023-08-31T03:36:02;12.52;;;8.18;;
46290;SDS011;32023;44.444;26.006;2023-08-31T03:44:01;12.20;;;8.43;;
46290;SDS011;32023;44.444;26.006;2023-08-31T03:47:11;13.00;;;9.07;;
46290;SDS011;32023;44.444;26.006;2023-08-31T03:49:52;13.95;;;8.23;;
46290;SDS011;32023;44.444;26.006;2023-08-31T03:57:45;20.48;;;8.40;;
46290;SDS011;32023;44.444;26.006;2023-08-31T04:06:54;14.15;;;8.43;;
46290;SDS011;32023;44.444;26.006;2023-08-31T04:09:26;14.10;;;7.95;;
46290;SDS011;32023;44.444;26.006;2023-08-31T04:14:44;13.30;;;8.93;;
46290;SDS011;32023;44.444;26.006;2023-08-31T04:17:10;15.10;;;7.77;;
46290;SDS011;32023;44.444;26.006;2023-08-31T04:24:45;10.82;;;8.30;;
46290;SDS011;32023;44.444;26.006;2023-08-31T04:27:21;17.38;;;8.73;;
46290;SDS011;32023;44.444;26.006;2023-08-31T04:32:43;13.05;;;8.25;;
46290;SDS011;32023;44.444;26.006;2023-08-31T04:35:33;25.27;;;9.07;;
46290;SDS011;32023;44.444;26.006;2023-08-31T04:38:10;15.10;;;8.75;;
46290;SDS011;32023;44.444;26.006;2023-08-31T04:40:40;12.27;;;9.07;;
46290;SDS011;32023;44.444;26.006;2023-08-31T04:43:09;14.13;;;8.98;;
46290;SDS011;32023;44.444;26.006;2023-08-31T04:50:57;14.63;;;9.65;;
46290;SDS011;32023;44.444;26.006;2023-08-31T04:53:25;15.90;;;8.95;;
46290;SDS011;32023;44.444;26.006;2023-08-31T04:56:00;12.45;;;8.70;;
46290;SDS011;32023;44.444;26.006;2023-08-31T04:58:37;15.10;;;8.77;;
46290;SDS011;32023;44.444;26.006;2023-08-31T05:04:04;14.30;;;9.00;;
46290;SDS011;32023;44.444;26.006;2023-08-31T05:06:49;13.40;;;9.18;;
46290;SDS011;32023;44.444;26.006;2023-08-31T05:12:03;22.20;;;10.18;;
46290;SDS011;32023;44.444;26.006;2023-08-31T05:17:05;12.93;;;8.70;;
46290;SDS011;32023;44.444;26.006;2023-08-31T05:19:54;12.18;;;8.95;;
46290;SDS011;32023;44.444;26.006;2023-08-31T05:22:46;12.55;;;8.35;;
46290;SDS011;32023;44.444;26.006;2023-08-31T05:25:28;12.80;;;7.38;;
46290;SDS011;32023;44.444;26.006;2023-08-31T05:28:16;14.13;;;7.13;;
46290;SDS011;32023;44.444;26.006;2023-08-31T05:30:49;9.45;;;6.57;;
46290;SDS011;32023;44.444;26.006;2023-08-31T05:33:31;7.72;;;6.13;;
46290;SDS011;32023;44.444;26.006;2023-08-31T05:36:01;14.25;;;5.65;;
46290;SDS011;32023;44.444;26.006;2023-08-31T05:38:31;11.10;;;5.95;;
46290;SDS011;32023;44.444;26.006;2023-08-31T05:43:46;6.63;;;5.38;;
46290;SDS011;32023;44.444;26.006;2023-08-31T05:46:22;8.05;;;5.57;;
46290;SDS011;32023;44.444;26.006;2023-08-31T05:49:00;7.22;;;4.40;;
46290;SDS011;32023;44.444;26.006;2023-08-31T05:51:52;9.80;;;5.30;;
46290;SDS011;32023;44.444;26.006;2023-08-31T05:57:37;13.75;;;5.63;;
46290;SDS011;32023;44.444;26.006;2023-08-31T06:00:21;8.60;;;5.10;;
46290;SDS011;32023;44.444;26.006;2023-08-31T06:03:13;8.43;;;5.80;;
46290;SDS011;32023;44.444;26.006;2023-08-31T06:05:40;12.15;;;6.28;;
46290;SDS011;32023;44.444;26.006;2023-08-31T06:08:12;12.77;;;5.90;;
46290;SDS011;32023;44.444;26.006;2023-08-31T06:10:44;11.20;;;5.47;;
46290;SDS011;32023;44.444;26.006;2023-08-31T06:13:13;10.18;;;5.75;;
46290;SDS011;32023;44.444;26.006;2023-08-31T06:15:45;14.30;;;5.40;;
46290;SDS011;32023;44.444;26.006;2023-08-31T06:18:19;11.80;;;5.80;;
46290;SDS011;32023;44.444;26.006;2023-08-31T06:20:45;8.60;;;5.15;;
46290;SDS011;32023;44.444;26.006;2023-08-31T06:23:14;7.53;;;4.78;;
46290;SDS011;32023;44.444;26.006;2023-08-31T06:25:50;7.40;;;4.47;;
46290;SDS011;32023;44.444;26.006;2023-08-31T06:31:15;8.10;;;4.28;;
46290;SDS011;32023;44.444;26.006;2023-08-31T06:33:46;6.60;;;4.25;;
46290;SDS011;32023;44.444;26.006;2023-08-31T06:36:13;13.10;;;4.25;;
46290;SDS011;32023;44.444;26.006;2023-08-31T06:38:40;7.57;;;3.95;;
46290;SDS011;32023;44.444;26.006;2023-08-31T06:41:24;5.35;;;3.90;;
46290;SDS011;32023;44.444;26.006;2023-08-31T06:44:04;9.25;;;4.03;;
46290;SDS011;32023;44.444;26.006;2023-08-31T06:46:35;7.20;;;3.47;;
46290;SDS011;32023;44.444;26.006;2023-08-31T06:49:16;5.57;;;4.18;;
46290;SDS011;32023;44.444;26.006;2023-08-31T06:51:46;8.40;;;3.42;;
46290;SDS011;32023;44.444;26.006;2023-08-31T06:54:49;10.35;;;4.03;;
46290;SDS011;32023;44.444;26.006;2023-08-31T07:00:05;10.82;;;4.43;;
46290;SDS011;32023;44.444;26.006;2023-08-31T07:02:33;7.28;;;4.07;;
46290;SDS011;32023;44.444;26.006;2023-08-31T07:05:00;8.63;;;4.20;;
46290;SDS011;32023;44.444;26.006;2023-08-31T07:07:29;8.35;;;4.32;;
46290;SDS011;32023;44.444;26.006;2023-08-31T07:10:04;9.25;;;4.13;;
46290;SDS011;32023;44.444;26.006;2023-08-31T07:12:35;6.55;;;3.63;;
46290;SDS011;32023;44.444;26.006;2023-08-31T07:15:04;8.32;;;4.00;;
46290;SDS011;32023;44.444;26.006;2023-08-31T07:17:47;6.78;;;3.97;;
46290;SDS011;32023;44.444;26.006;2023-08-31T07:20:21;8.32;;;4.22;;
46290;SDS011;32023;44.444;26.006;2023-08-31T07:22:56;5.47;;;3.75;;
46290;SDS011;32023;44.444;26.006;2023-08-31T07:25:24;6.35;;;4.15;;
46290;SDS011;32023;44.444;26.006;2023-08-31T07:27:53;6.05;;;4.30;;
46290;SDS011;32023;44.444;26.006;2023-08-31T07:30:20;6.75;;;4.18;;
46290;SDS011;32023;44.444;26.006;2023-08-31T07:32:49;8.93;;;4.03;;
46290;SDS011;32023;44.444;26.006;2023-08-31T07:35:16;13.20;;;4.50;;
46290;SDS011;32023;44.444;26.006;2023-08-31T07:37:45;7.25;;;3.85;;
46290;SDS011;32023;44.444;26.006;2023-08-31T07:40:12;6.93;;;3.75;;
46290;SDS011;32023;44.444;26.006;2023-08-31T07:42:41;8.63;;;4.00;;
46290;SDS011;32023;44.444;26.006;2023-08-31T07:45:17;8.15;;;4.15;;
46290;SDS011;32023;44.444;26.006;2023-08-31T07:47:47;7.88;;;3.97;;
46290;SDS011;32023;44.444;26.006;2023-08-31T07:50:19;8.00;;;3.70;;
46290;SDS011;32023;44.444;26.006;2023-08-31T07:52:48;10.23;;;4.07;;
46290;SDS011;32023;44.444;26.006;2023-08-31T07:55:23;6.97;;;3.38;;
46290;SDS011;32023;44.444;26.006;2023-08-31T07:57:49;12.10;;;3.70;;
46290;SDS011;32023;44.444;26.006;2023-08-31T08:00:19;7.38;;;3.58;;
46290;SDS011;32023;44.444;26.006;2023-08-31T08:02:53;8.43;;;4.05;;
46290;SDS011;32023;44.444;26.006;2023-08-31T08:05:22;6.03;;;3.90;;
46290;SDS011;32023;44.444;26.006;2023-08-31T08:10:40;8.48;;;3.53;;
46290;SDS011;32023;44.444;26.006;2023-08-31T08:13:12;6.53;;;4.05;;
46290;SDS011;32023;44.444;26.006;2023-08-31T08:15:41;10.75;;;3.42;;
46290;SDS011;32023;44.444;26.006;2023-08-31T08:18:41;7.78;;;3.53;;
46290;SDS011;32023;44.444;26.006;2023-08-31T08:21:13;7.93;;;3.58;;
46290;SDS011;32023;44.444;26.006;2023-08-31T08:23:46;7.65;;;3.85;;
46290;SDS011;32023;44.444;26.006;2023-08-31T08:29:33;12.80;;;3.60;;
46290;SDS011;32023;44.444;26.006;2023-08-31T08:34:49;7.07;;;3.22;;
46290;SDS011;32023;44.444;26.006;2023-08-31T08:37:18;6.72;;;3.85;;
46290;SDS011;32023;44.444;26.006;2023-08-31T08:39:58;8.13;;;3.90;;
46290;SDS011;32023;44.444;26.006;2023-08-31T08:42:25;6.35;;;3.90;;
46290;SDS011;32023;44.444;26.006;2023-08-31T08:45:04;6.38;;;3.67;;
46290;SDS011;32023;44.444;26.006;2023-08-31T08:47:42;6.22;;;3.78;;
46290;SDS011;32023;44.444;26.006;2023-08-31T08:50:16;8.00;;;3.63;;
46290;SDS011;32023;44.444;26.006;2023-08-31T08:52:47;5.30;;;3.47;;
46290;SDS011;32023;44.444;26.006;2023-08-31T08:55:23;8.52;;;3.55;;
46290;SDS011;32023;44.444;26.006;2023-08-31T09:00:53;5.97;;;3.58;;
46290;SDS011;32023;44.444;26.006;2023-08-31T09:03:23;8.43;;;4.03;;
46290;SDS011;32023;44.444;26.006;2023-08-31T09:05:58;6.65;;;3.40;;
46290;SDS011;32023;44.444;26.006;2023-08-31T09:10:59;6.95;;;3.25;;
46290;SDS011;32023;44.444;26.006;2023-08-31T09:13:29;7.65;;;3.80;;
46290;SDS011;32023;44.444;26.006;2023-08-31T09:20:55;7.38;;;3.45;;
46290;SDS011;32023;44.444;26.006;2023-08-31T09:23:28;6.90;;;3.28;;
46290;SDS011;32023;44.444;26.006;2023-08-31T09:25:55;6.30;;;3.25;;
46290;SDS011;32023;44.444;26.006;2023-08-31T09:31:23;5.18;;;2.90;;
46290;SDS011;32023;44.444;26.006;2023-08-31T09:34:00;5.47;;;2.78;;
46290;SDS011;32023;44.444;26.006;2023-08-31T09:36:32;6.35;;;3.53;;
46290;SDS011;32023;44.444;26.006;2023-08-31T09:39:01;5.55;;;3.03;;
46290;SDS011;32023;44.444;26.006;2023-08-31T09:44:29;3.90;;;2.67;;
46290;SDS011;32023;44.444;26.006;2023-08-31T09:50:00;6.10;;;2.58;;
46290;SDS011;32023;44.444;26.006;2023-08-31T09:52:28;6.38;;;3.30;;
46290;SDS011;32023;44.444;26.006;2023-08-31T09:54:58;5.40;;;3.42;;
46290;SDS011;32023;44.444;26.006;2023-08-31T10:00:10;6.97;;;3.53;;
46290;SDS011;32023;44.444;26.006;2023-08-31T10:02:46;7.57;;;3.10;;
46290;SDS011;32023;44.444;26.006;2023-08-31T10:05:17;4.43;;;2.88;;
46290;SDS011;32023;44.444;26.006;2023-08-31T10:07:44;6.13;;;2.88;;
46290;SDS011;32023;44.444;26.006;2023-08-31T10:10:17;4.95;;;3.28;;
46290;SDS011;32023;44.444;26.006;2023-08-31T10:13:06;4.20;;;3.03;;
46290;SDS011;32023;44.444;26.006;2023-08-31T10:15:39;7.57;;;3.20;;
46290;SDS011;32023;44.444;26.006;2023-08-31T10:18:15;7.45;;;3.22;;
46290;SDS011;32023;44.444;26.006;2023-08-31T10:23:56;8.60;;;2.70;;
46290;SDS011;32023;44.444;26.006;2023-08-31T10:26:53;7.10;;;2.42;;
46290;SDS011;32023;44.444;26.006;2023-08-31T10:29:28;7.05;;;2.72;;
46290;SDS011;32023;44.444;26.006;2023-08-31T10:34:34;4.65;;;3.08;;
46290;SDS011;32023;44.444;26.006;2023-08-31T10:37:20;6.53;;;2.63;;
46290;SDS011;32023;44.444;26.006;2023-08-31T10:40:06;6.22;;;3.72;;
46290;SDS011;32023;44.444;26.006;2023-08-31T10:43:13;4.63;;;2.80;;
46290;SDS011;32023;44.444;26.006;2023-08-31T10:45:43;4.78;;;3.05;;
46290;SDS011;32023;44.444;26.006;2023-08-31T10:48:10;7.57;;;3.20;;
46290;SDS011;32023;44.444;26.006;2023-08-31T10:50:42;4.82;;;2.90;;
46290;SDS011;32023;44.444;26.006;2023-08-31T10:53:14;6.85;;;3.45;;
46290;SDS011;32023;44.444;26.006;2023-08-31T10:56:03;6.75;;;3.10;;
46290;SDS011;32023;44.444;26.006;2023-08-31T10:58:34;3.28;;;2.30;;
46290;SDS011;32023;44.444;26.006;2023-08-31T11:01:09;5.95;;;3.35;;
46290;SDS011;32023;44.444;26.006;2023-08-31T11:06:40;6.72;;;3.40;;
46290;SDS011;32023;44.444;26.006;2023-08-31T11:09:21;5.05;;;2.65;;
46290;SDS011;32023;44.444;26.006;2023-08-31T11:11:59;7.60;;;2.67;;
46290;SDS011;32023;44.444;26.006;2023-08-31T11:14:51;6.15;;;2.70;;
46290;SDS011;32023;44.444;26.006;2023-08-31T11:17:27;5.40;;;2.47;;
46290;SDS011;32023;44.444;26.006;2023-08-31T11:20:02;7.28;;;3.55;;
46290;SDS011;32023;44.444;26.006;2023-08-31T11:22:34;6.50;;;3.20;;
46290;SDS011;32023;44.444;26.006;2023-08-31T11:25:23;5.18;;;2.88;;
46290;SDS011;32023;44.444;26.006;2023-08-31T11:27:55;5.78;;;3.30;;
46290;SDS011;32023;44.444;26.006;2023-08-31T11:30:29;5.07;;;2.58;;
46290;SDS011;32023;44.444;26.006;2023-08-31T11:32:56;3.58;;;2.35;;
46290;SDS011;32023;44.444;26.006;2023-08-31T11:35:33;6.97;;;2.80;;
46290;SDS011;32023;44.444;26.006;2023-08-31T11:38:10;4.65;;;2.85;;
46290;SDS011;32023;44.444;26.006;2023-08-31T11:40:44;5.07;;;2.63;;
46290;SDS011;32023;44.444;26.006;2023-08-31T11:43:14;5.85;;;2.55;;
46290;SDS011;32023;44.444;26.006;2023-08-31T11:45:44;5.63;;;2.67;;
46290;SDS011;32023;44.444;26.006;2023-08-31T11:48:33;5.72;;;2.75;;
46290;SDS011;32023;44.444;26.006;2023-08-31T11:54:36;9.40;;;3.63;;
46290;SDS011;32023;44.444;26.006;2023-08-31T12:04:41;4.63;;;2.30;;
46290;SDS011;32023;44.444;26.006;2023-08-31T12:07:22;4.45;;;2.55;;
46290;SDS011;32023;44.444;26.006;2023-08-31T12:14:03;6.10;;;2.65;;
46290;SDS011;32023;44.444;26.006;2023-08-31T12:17:27;3.58;;;2.00;;
46290;SDS011;32023;44.444;26.006;2023-08-31T12:20:26;4.25;;;2.10;;
46290;SDS011;32023;44.444;26.006;2023-08-31T12:23:07;3.42;;;2.08;;
46290;SDS011;32023;44.444;26.006;2023-08-31T12:29:12;8.55;;;2.45;;
46290;SDS011;32023;44.444;26.006;2023-08-31T12:31:43;5.35;;;2.20;;
46290;SDS011;32023;44.444;26.006;2023-08-31T12:34:36;4.50;;;2.25;;
46290;SDS011;32023;44.444;26.006;2023-08-31T12:40:47;5.20;;;2.15;;
46290;SDS011;32023;44.444;26.006;2023-08-31T12:43:19;4.25;;;2.25;;
46290;SDS011;32023;44.444;26.006;2023-08-31T12:45:59;4.75;;;2.50;;
46290;SDS011;32023;44.444;26.006;2023-08-31T12:48:29;4.05;;;1.98;;
46290;SDS011;32023;44.444;26.006;2023-08-31T12:51:03;7.93;;;2.20;;
46290;SDS011;32023;44.444;26.006;2023-08-31T12:53:36;7.80;;;2.47;;
46290;SDS011;32023;44.444;26.006;2023-08-31T12:58:36;3.53;;;1.67;;
46290;SDS011;32023;44.444;26.006;2023-08-31T13:01:10;4.88;;;2.03;;
46290;SDS011;32023;44.444;26.006;2023-08-31T13:03:37;5.15;;;2.55;;
46290;SDS011;32023;44.444;26.006;2023-08-31T13:06:03;5.00;;;2.28;;
46290;SDS011;32023;44.444;26.006;2023-08-31T13:08:35;5.22;;;2.22;;
46290;SDS011;32023;44.444;26.006;2023-08-31T13:11:02;4.35;;;1.63;;
46290;SDS011;32023;44.444;26.006;2023-08-31T13:13:33;3.42;;;2.15;;
46290;SDS011;32023;44.444;26.006;2023-08-31T13:16:07;7.25;;;2.45;;
46290;SDS011;32023;44.444;26.006;2023-08-31T13:18:46;4.35;;;2.33;;
46290;SDS011;32023;44.444;26.006;2023-08-31T13:23:55;6.32;;;2.08;;
46290;SDS011;32023;44.444;26.006;2023-08-31T13:26:22;3.35;;;2.30;;
46290;SDS011;32023;44.444;26.006;2023-08-31T13:28:51;5.55;;;2.65;;
46290;SDS011;32023;44.444;26.006;2023-08-31T13:31:53;6.57;;;2.20;;
46290;SDS011;32023;44.444;26.006;2023-08-31T13:34:40;4.75;;;2.25;;
46290;SDS011;32023;44.444;26.006;2023-08-31T13:39:44;3.78;;;2.30;;
46290;SDS011;32023;44.444;26.006;2023-08-31T13:42:19;3.80;;;2.00;;
46290;SDS011;32023;44.444;26.006;2023-08-31T13:48:09;5.05;;;2.35;;
46290;SDS011;32023;44.444;26.006;2023-08-31T13:53:54;4.60;;;2.03;;
46290;SDS011;32023;44.444;26.006;2023-08-31T13:56:23;3.67;;;1.85;;
46290;SDS011;32023;44.444;26.006;2023-08-31T14:01:27;8.40;;;2.20;;
46290;SDS011;32023;44.444;26.006;2023-08-31T14:04:05;8.80;;;2.25;;
46290;SDS011;32023;44.444;26.006;2023-08-31T14:06:41;3.20;;;2.08;;
46290;SDS011;32023;44.444;26.006;2023-08-31T14:09:13;4.82;;;1.90;;
46290;SDS011;32023;44.444;26.006;2023-08-31T14:11:49;6.97;;;2.40;;
46290;SDS011;32023;44.444;26.006;2023-08-31T14:14:22;3.67;;;1.60;;
46290;SDS011;32023;44.444;26.006;2023-08-31T14:20:11;5.05;;;2.13;;
46290;SDS011;32023;44.444;26.006;2023-08-31T14:22:47;3.92;;;2.08;;
46290;SDS011;32023;44.444;26.006;2023-08-31T14:25:19;5.15;;;1.73;;
46290;SDS011;32023;44.444;26.006;2023-08-31T14:27:57;3.95;;;2.00;;
46290;SDS011;32023;44.444;26.006;2023-08-31T14:33:03;5.50;;;2.20;;
46290;SDS011;32023;44.444;26.006;2023-08-31T14:35:43;3.15;;;1.80;;
46290;SDS011;32023;44.444;26.006;2023-08-31T14:38:13;2.65;;;1.85;;
46290;SDS011;32023;44.444;26.006;2023-08-31T14:40:50;2.78;;;1.90;;
46290;SDS011;32023;44.444;26.006;2023-08-31T14:43:25;4.55;;;1.85;;
46290;SDS011;32023;44.444;26.006;2023-08-31T14:48:58;3.58;;;2.05;;
46290;SDS011;32023;44.444;26.006;2023-08-31T14:51:40;4.20;;;1.75;;
46290;SDS011;32023;44.444;26.006;2023-08-31T14:54:09;6.97;;;2.33;;
46290;SDS011;32023;44.444;26.006;2023-08-31T14:56:42;2.97;;;1.80;;
46290;SDS011;32023;44.444;26.006;2023-08-31T14:59:51;2.65;;;2.10;;
46290;SDS011;32023;44.444;26.006;2023-08-31T15:02:39;7.28;;;2.22;;
46290;SDS011;32023;44.444;26.006;2023-08-31T15:05:22;6.45;;;2.35;;
46290;SDS011;32023;44.444;26.006;2023-08-31T15:15:00;5.90;;;2.10;;
46290;SDS011;32023;44.444;26.006;2023-08-31T15:24:15;4.10;;;1.90;;
46290;SDS011;32023;44.444;26.006;2023-08-31T15:26:55;5.70;;;1.95;;
46290;SDS011;32023;44.444;26.006;2023-08-31T15:32:44;4.60;;;2.00;;
46290;SDS011;32023;44.444;26.006;2023-08-31T15:38:25;3.08;;;1.40;;
46290;SDS011;32023;44.444;26.006;2023-08-31T15:47:44;2.90;;;1.55;;
46290;SDS011;32023;44.444;26.006;2023-08-31T15:50:13;2.45;;;1.70;;
46290;SDS011;32023;44.444;26.006;2023-08-31T16:00:33;4.00;;;1.95;;
46290;SDS011;32023;44.444;26.006;2023-08-31T16:05:59;3.15;;;1.20;;
46290;SDS011;32023;44.444;26.006;2023-08-31T16:15:48;4.60;;;1.98;;
46290;SDS011;32023;44.444;26.006;2023-08-31T16:18:37;5.05;;;1.65;;
46290;SDS011;32023;44.444;26.006;2023-08-31T16:21:10;3.72;;;2.00;;
46290;SDS011;32023;44.444;26.006;2023-08-31T16:26:28;5.25;;;2.17;;
46290;SDS011;32023;44.444;26.006;2023-08-31T16:29:00;8.13;;;2.20;;
46290;SDS011;32023;44.444;26.006;2023-08-31T16:37:31;4.50;;;2.10;;
46290;SDS011;32023;44.444;26.006;2023-08-31T16:40:01;4.38;;;2.30;;
46290;SDS011;32023;44.444;26.006;2023-08-31T16:42:40;15.00;;;2.55;;
46290;SDS011;32023;44.444;26.006;2023-08-31T16:45:13;4.32;;;2.13;;
46290;SDS011;32023;44.444;26.006;2023-08-31T16:48:06;9.63;;;2.75;;
46290;SDS011;32023;44.444;26.006;2023-08-31T16:54:30;4.22;;;2.70;;
46290;SDS011;32023;44.444;26.006;2023-08-31T16:58:04;9.68;;;2.90;;
46290;SDS011;32023;44.444;26.006;2023-08-31T17:10:13;9.87;;;2.83;;
46290;SDS011;32023;44.444;26.006;2023-08-31T17:12:47;8.23;;;2.65;;
46290;SDS011;32023;44.444;26.006;2023-08-31T17:18:42;6.05;;;2.80;;
46290;SDS011;32023;44.444;26.006;2023-08-31T17:24:24;5.13;;;2.97;;
46290;SDS011;32023;44.444;26.006;2023-08-31T17:34:21;7.35;;;3.40;;
46290;SDS011;32023;44.444;26.006;2023-08-31T17:42:58;7.95;;;3.33;;
46290;SDS011;32023;44.444;26.006;2023-08-31T17:46:11;7.28;;;3.40;;
46290;SDS011;32023;44.444;26.006;2023-08-31T17:49:00;6.85;;;3.42;;
46290;SDS011;32023;44.444;26.006;2023-08-31T17:51:44;3.75;;;3.15;;
46290;SDS011;32023;44.444;26.006;2023-08-31T17:54:16;7.82;;;3.63;;
46290;SDS011;32023;44.444;26.006;2023-08-31T17:59:54;6.88;;;3.47;;
46290;SDS011;32023;44.444;26.006;2023-08-31T18:08:50;8.13;;;4.35;;
46290;SDS011;32023;44.444;26.006;2023-08-31T18:11:26;8.52;;;4.47;;
46290;SDS011;32023;44.444;26.006;2023-08-31T18:14:01;9.23;;;3.92;;
46290;SDS011;32023;44.444;26.006;2023-08-31T18:16:33;11.77;;;5.03;;
46290;SDS011;32023;44.444;26.006;2023-08-31T18:19:11;6.30;;;4.28;;
46290;SDS011;32023;44.444;26.006;2023-08-31T18:21:37;5.93;;;4.70;;
46290;SDS011;32023;44.444;26.006;2023-08-31T18:24:06;14.32;;;4.88;;
46290;SDS011;32023;44.444;26.006;2023-08-31T18:26:56;7.35;;;5.00;;
46290;SDS011;32023;44.444;26.006;2023-08-31T18:29:22;5.90;;;4.80;;
46290;SDS011;32023;44.444;26.006;2023-08-31T18:31:53;14.55;;;5.18;;
46290;SDS011;32023;44.444;26.006;2023-08-31T18:34:19;10.75;;;5.25;;
46290;SDS011;32023;44.444;26.006;2023-08-31T18:36:54;11.30;;;6.10;;
46290;SDS011;32023;44.444;26.006;2023-08-31T18:39:33;9.95;;;5.70;;
46290;SDS011;32023;44.444;26.006;2023-08-31T18:42:00;13.27;;;6.28;;
46290;SDS011;32023;44.444;26.006;2023-08-31T18:44:35;13.68;;;6.20;;
46290;SDS011;32023;44.444;26.006;2023-08-31T18:49:55;12.85;;;7.00;;
46290;SDS011;32023;44.444;26.006;2023-08-31T18:52:35;11.00;;;6.30;;
46290;SDS011;32023;44.444;26.006;2023-08-31T18:55:03;9.50;;;6.40;;
46290;SDS011;32023;44.444;26.006;2023-08-31T18:57:30;10.48;;;6.22;;
46290;SDS011;32023;44.444;26.006;2023-08-31T18:59:57;9.80;;;6.38;;
46290;SDS011;32023;44.444;26.006;2023-08-31T19:02:31;13.38;;;6.47;;
46290;SDS011;32023;44.444;26.006;2023-08-31T19:05:08;10.73;;;6.13;;
46290;SDS011;32023;44.444;26.006;2023-08-31T19:07:51;13.00;;;6.82;;
46290;SDS011;32023;44.444;26.006;2023-08-31T19:13:39;14.95;;;7.15;;
46290;SDS011;32023;44.444;26.006;2023-08-31T19:16:19;17.77;;;7.05;;
46290;SDS011;32023;44.444;26.006;2023-08-31T19:22:53;9.52;;;6.68;;
46290;SDS011;32023;44.444;26.006;2023-08-31T19:25:58;14.65;;;7.32;;
46290;SDS011;32023;44.444;26.006;2023-08-31T19:32:04;13.85;;;7.00;;
46290;SDS011;32023;44.444;26.006;2023-08-31T19:34:35;13.65;;;7.80;;
46290;SDS011;32023;44.444;26.006;2023-08-31T19:37:12;11.43;;;7.10;;
46290;SDS011;32023;44.444;26.006;2023-08-31T19:39:39;10.73;;;6.60;;
46290;SDS011;32023;44.444;26.006;2023-08-31T19:42:08;13.80;;;7.43;;
46290;SDS011;32023;44.444;26.006;2023-08-31T19:44:47;12.02;;;7.72;;
46290;SDS011;32023;44.444;26.006;2023-08-31T19:47:41;13.35;;;7.80;;
46290;SDS011;32023;44.444;26.006;2023-08-31T19:50:29;21.20;;;8.43;;
46290;SDS011;32023;44.444;26.006;2023-08-31T19:53:01;11.98;;;7.90;;
46290;SDS011;32023;44.444;26.006;2023-08-31T19:55:40;10.20;;;7.13;;
46290;SDS011;32023;44.444;26.006;2023-08-31T19:58:19;16.48;;;7.90;;
46290;SDS011;32023;44.444;26.006;2023-08-31T20:00:51;14.15;;;7.68;;
46290;SDS011;32023;44.444;26.006;2023-08-31T20:03:28;14.82;;;7.97;;
46290;SDS011;32023;44.444;26.006;2023-08-31T20:05:57;15.63;;;8.70;;
46290;SDS011;32023;44.444;26.006;2023-08-31T20:08:40;16.30;;;8.15;;
46290;SDS011;32023;44.444;26.006;2023-08-31T20:11:11;13.52;;;7.90;;
46290;SDS011;32023;44.444;26.006;2023-08-31T20:13:44;12.73;;;7.47;;
46290;SDS011;32023;44.444;26.006;2023-08-31T20:16:21;15.13;;;7.82;;
46290;SDS011;32023;44.444;26.006;2023-08-31T20:18:54;14.07;;;7.90;;
46290;SDS011;32023;44.444;26.006;2023-08-31T20:21:26;12.15;;;7.93;;
46290;SDS011;32023;44.444;26.006;2023-08-31T20:24:09;15.02;;;8.95;;
46290;SDS011;32023;44.444;26.006;2023-08-31T20:26:40;13.73;;;8.10;;
46290;SDS011;32023;44.444;26.006;2023-08-31T20:29:11;10.57;;;7.57;;
46290;SDS011;32023;44.444;26.006;2023-08-31T20:31:42;13.07;;;8.30;;
46290;SDS011;32023;44.444;26.006;2023-08-31T20:34:23;13.75;;;8.15;;
46290;SDS011;32023;44.444;26.006;2023-08-31T20:42:46;13.63;;;7.35;;
46290;SDS011;32023;44.444;26.006;2023-08-31T20:45:50;11.35;;;7.63;;
46290;SDS011;32023;44.444;26.006;2023-08-31T20:48:52;11.38;;;8.10;;
46290;SDS011;32023;44.444;26.006;2023-08-31T20:51:21;13.43;;;8.32;;
46290;SDS011;32023;44.444;26.006;2023-08-31T20:53:53;15.48;;;8.10;;